createdAt,value
2019-03-02T00:01:13.406Z,5.34
2019-03-02T00:03:42.624Z,5.28
2019-03-02T00:06:11.078Z,5.24
2019-03-02T00:08:39.153Z,5.12
2019-03-02T00:11:07.270Z,5.25
2019-03-02T00:13:35.417Z,5.21
2019-03-02T00:16:04.289Z,5.17
2019-03-02T00:18:33.547Z,5.28
2019-03-02T00:21:01.689Z,5.15
2019-03-02T00:23:29.770Z,5.20
2019-03-02T00:25:57.933Z,5.25
2019-03-02T00:28:26.177Z,5.09
2019-03-02T00:30:54.865Z,5.25
2019-03-02T00:33:24.350Z,5.24
2019-03-02T00:35:52.422Z,5.12
2019-03-02T00:38:20.683Z,5.27
2019-03-02T00:40:48.759Z,5.17
2019-03-02T00:43:17.184Z,5.11
2019-03-02T00:45:45.962Z,5.17
2019-03-02T00:48:15.494Z,5.09
2019-03-02T00:50:43.901Z,5.21
2019-03-02T00:53:12.027Z,4.89
2019-03-02T00:55:40.136Z,4.98
2019-03-02T00:58:08.632Z,4.89
2019-03-02T01:00:37.150Z,5.15
2019-03-02T01:03:05.391Z,5.18
2019-03-02T01:05:36.366Z,5.12
2019-03-02T01:08:04.256Z,5.14
2019-03-02T01:10:32.464Z,5.12
2019-03-02T01:13:00.787Z,5.16
2019-03-02T01:15:29.096Z,5.25
2019-03-02T01:17:57.159Z,5.28
2019-03-02T01:20:28.757Z,5.30
2019-03-02T01:22:55.570Z,5.19
2019-03-02T01:25:23.915Z,5.18
2019-03-02T01:27:52.068Z,5.32
2019-03-02T01:30:20.675Z,5.24
2019-03-02T01:32:52.534Z,5.28
2019-03-02T01:35:20.520Z,5.36
2019-03-02T01:37:49.089Z,5.30
2019-03-02T01:40:17.505Z,5.22
2019-03-02T01:42:45.664Z,5.23
2019-03-02T01:45:15.634Z,5.15
2019-03-02T01:47:43.986Z,5.09
2019-03-02T01:50:15.242Z,5.21
2019-03-02T01:52:43.428Z,5.28
2019-03-02T01:55:12.088Z,5.17
2019-03-02T01:57:40.176Z,5.21
2019-03-02T02:00:16.920Z,5.19
2019-03-02T02:02:45.813Z,5.32
2019-03-02T02:05:13.990Z,5.37
2019-03-02T02:07:42.242Z,5.25
2019-03-02T02:10:11.796Z,5.15
2019-03-02T02:12:39.990Z,5.18
2019-03-02T02:15:12.256Z,5.14
2019-03-02T02:17:40.709Z,5.27
2019-03-02T02:20:11.001Z,5.25
2019-03-02T02:22:40.839Z,5.19
2019-03-02T02:25:10.696Z,5.06
2019-03-02T02:27:39.359Z,5.15
2019-03-02T02:30:18.619Z,5.18
2019-03-02T02:32:43.817Z,5.31
2019-03-02T02:35:11.953Z,5.24
2019-03-02T02:37:41.083Z,5.29
2019-03-02T02:40:12.453Z,5.25
2019-03-02T02:42:43.159Z,5.37
2019-03-02T02:45:15.179Z,5.20
2019-03-02T02:47:50.467Z,5.29
2019-03-02T02:50:13.052Z,5.32
2019-03-02T02:52:42.552Z,5.13
2019-03-02T02:55:10.650Z,5.17
2019-03-02T02:57:39.766Z,5.21
2019-03-02T03:00:20.124Z,5.24
2019-03-02T03:02:48.507Z,5.28
2019-03-02T03:05:17.637Z,5.30
2019-03-02T03:07:51.871Z,5.29
2019-03-02T03:10:38.431Z,5.17
2019-03-02T03:13:06.593Z,5.25
2019-03-02T03:15:39.968Z,5.27
2019-03-02T03:18:12.361Z,5.24
2019-03-02T03:20:39.237Z,5.17
2019-03-02T03:23:07.354Z,5.19
2019-03-02T03:25:35.456Z,5.15
2019-03-02T03:28:03.549Z,5.20
2019-03-02T03:30:38.808Z,5.27
2019-03-02T03:33:02.059Z,5.16
2019-03-02T03:35:30.162Z,5.21
2019-03-02T03:37:58.404Z,5.29
2019-03-02T03:40:27.171Z,5.25
2019-03-02T03:43:02.272Z,5.18
2019-03-02T03:45:27.974Z,5.19
2019-03-02T03:47:55.639Z,5.16
2019-03-02T03:50:23.764Z,5.11
2019-03-02T03:52:51.842Z,5.19
2019-03-02T03:55:25.218Z,5.26
2019-03-02T03:57:49.967Z,5.29
2019-03-02T04:00:18.077Z,5.21
2019-03-02T04:02:46.173Z,5.00
2019-03-02T04:05:14.603Z,5.05
2019-03-02T04:07:48.189Z,5.10
2019-03-02T04:10:13.420Z,5.16
2019-03-02T04:12:41.948Z,5.14
2019-03-02T04:15:10.443Z,5.07
2019-03-02T04:17:40.705Z,5.13
2019-03-02T04:20:14.795Z,5.08
2019-03-02T04:22:44.758Z,5.00
2019-03-02T04:25:17.918Z,4.97
2019-03-02T04:27:43.623Z,5.08
2019-03-02T04:30:11.867Z,5.11
2019-03-02T04:32:39.943Z,5.18
2019-03-02T04:35:08.480Z,4.94
2019-03-02T04:37:36.584Z,5.05
2019-03-02T04:40:05.254Z,5.09
2019-03-02T04:42:33.344Z,5.12
2019-03-02T04:45:04.536Z,4.99
2019-03-02T04:47:31.523Z,5.07
2019-03-02T04:49:59.655Z,5.07
2019-03-02T04:52:27.854Z,5.03
2019-03-02T04:54:56.049Z,5.16
2019-03-02T04:57:24.134Z,5.15
2019-03-02T04:59:53.667Z,5.09
2019-03-02T05:02:22.532Z,4.98
2019-03-02T05:04:50.653Z,5.06
2019-03-02T05:07:18.768Z,5.02
2019-03-02T05:09:48.530Z,5.00
2019-03-02T05:12:17.052Z,5.00
2019-03-02T05:14:45.262Z,5.06
2019-03-02T05:17:13.494Z,5.12
2019-03-02T05:19:42.110Z,5.23
2019-03-02T05:22:10.239Z,5.13
2019-03-02T05:24:40.517Z,5.02
2019-03-02T05:27:08.520Z,5.09
2019-03-02T05:29:36.645Z,4.96
2019-03-02T05:32:04.699Z,5.02
2019-03-02T05:34:32.835Z,5.14
2019-03-02T05:37:02.875Z,4.84
2019-03-02T05:39:31.003Z,4.99
2019-03-02T05:41:59.193Z,5.10
2019-03-02T05:44:27.310Z,5.04
2019-03-02T05:46:57.841Z,5.11
2019-03-02T05:49:25.860Z,5.06
2019-03-02T05:51:53.915Z,4.87
2019-03-02T05:54:22.154Z,4.87
2019-03-02T05:56:50.655Z,5.05
2019-03-02T05:59:18.804Z,4.98
2019-03-02T06:01:47.045Z,4.84
2019-03-02T06:04:15.271Z,4.99
2019-03-02T06:06:43.494Z,5.00
2019-03-02T06:09:13.936Z,5.00
2019-03-02T06:11:41.622Z,5.06
2019-03-02T06:14:09.896Z,5.10
2019-03-02T06:16:38.016Z,5.05
2019-03-02T06:19:06.137Z,5.03
2019-03-02T06:21:34.255Z,5.13
2019-03-02T06:24:05.343Z,4.99
2019-03-02T06:26:35.456Z,4.97
2019-03-02T06:29:03.063Z,5.11
2019-03-02T06:31:31.173Z,4.96
2019-03-02T06:33:59.287Z,5.01
2019-03-02T06:36:27.479Z,5.15
2019-03-02T06:38:55.663Z,5.08
2019-03-02T06:41:23.814Z,5.16
2019-03-02T06:43:55.057Z,5.12
2019-03-02T06:46:23.452Z,5.40
2019-03-02T06:48:51.810Z,5.10
2019-03-02T06:51:20.278Z,5.22
2019-03-02T06:53:48.565Z,5.23
2019-03-02T06:56:16.672Z,5.38
2019-03-02T06:58:44.874Z,5.30
2019-03-02T07:01:13.169Z,5.17
2019-03-02T07:03:42.878Z,5.19
2019-03-02T07:06:11.627Z,4.98
2019-03-02T07:08:40.962Z,5.06
2019-03-02T07:11:09.004Z,5.19
2019-03-02T07:13:37.143Z,5.14
2019-03-02T07:16:05.298Z,5.29
2019-03-02T07:18:43.174Z,5.18
2019-03-02T07:21:11.549Z,5.11
2019-03-02T07:23:39.690Z,5.23
2019-03-02T07:26:07.865Z,5.37
2019-03-02T07:28:38.855Z,5.29
2019-03-02T07:31:06.062Z,5.23
2019-03-02T07:33:34.610Z,5.40
2019-03-02T07:36:02.891Z,5.55
2019-03-02T07:38:31.758Z,5.57
2019-03-02T07:40:59.932Z,5.57
2019-03-02T07:43:28.011Z,5.60
2019-03-02T07:45:56.119Z,5.49
2019-03-02T07:48:24.230Z,5.77
2019-03-02T07:50:52.661Z,5.74
2019-03-02T07:53:20.774Z,5.85
2019-03-02T07:55:48.973Z,5.96
2019-03-02T07:58:19.789Z,5.78
2019-03-02T08:00:47.140Z,6.03
2019-03-02T08:03:15.404Z,5.82
2019-03-02T08:05:47.030Z,5.68
2019-03-02T08:08:13.914Z,5.98
2019-03-02T08:10:43.027Z,5.90
2019-03-02T08:13:12.330Z,5.95
2019-03-02T08:15:40.625Z,6.02
2019-03-02T08:18:08.744Z,6.06
2019-03-02T08:20:36.894Z,5.96
2019-03-02T08:23:05.009Z,6.02
2019-03-02T08:25:33.138Z,5.96
2019-03-02T08:28:01.781Z,5.95
2019-03-02T08:30:33.378Z,6.08
2019-03-02T08:32:59.913Z,6.05
2019-03-02T08:35:28.381Z,6.11
2019-03-02T08:37:56.413Z,6.19
2019-03-02T08:40:24.641Z,6.04
2019-03-02T08:42:52.842Z,6.01
2019-03-02T08:45:21.066Z,6.05
2019-03-02T08:47:49.114Z,5.91
2019-03-02T08:50:18.804Z,6.07
2019-03-02T08:52:47.119Z,6.17
2019-03-02T08:55:15.459Z,6.05
2019-03-02T08:57:44.180Z,5.98
2019-03-02T09:00:16.902Z,5.79
2019-03-02T09:02:45.328Z,5.96
2019-03-02T09:05:14.348Z,6.00
2019-03-02T09:07:42.446Z,5.88
2019-03-02T09:10:13.578Z,6.07
2019-03-02T09:12:41.810Z,6.15
2019-03-02T09:15:15.366Z,5.90
2019-03-02T09:17:43.800Z,5.84
2019-03-02T09:20:11.895Z,6.05
2019-03-02T09:22:39.994Z,6.14
2019-03-02T09:25:11.261Z,6.25
2019-03-02T09:27:40.382Z,6.31
2019-03-02T09:30:12.354Z,6.59
2019-03-02T09:32:40.621Z,6.62
2019-03-02T09:35:09.123Z,6.88
2019-03-02T09:37:37.280Z,6.75
2019-03-02T09:40:06.515Z,6.77
2019-03-02T09:42:40.272Z,6.94
2019-03-02T09:45:13.834Z,7.08
2019-03-02T09:47:43.961Z,7.09
2019-03-02T09:50:14.427Z,7.07
2019-03-02T09:52:42.743Z,7.43
2019-03-02T09:55:14.890Z,7.19
2019-03-02T09:57:47.536Z,7.48
2019-03-02T10:00:23.507Z,7.19
2019-03-02T10:02:50.024Z,7.56
2019-03-02T10:05:19.589Z,7.61
2019-03-02T10:07:47.732Z,7.76
2019-03-02T10:10:16.813Z,7.97
2019-03-02T10:12:47.362Z,8.26
2019-03-02T10:15:19.373Z,7.98
2019-03-02T10:17:48.290Z,7.91
2019-03-02T10:20:16.800Z,7.78
2019-03-02T10:22:44.902Z,7.97
2019-03-02T10:25:14.156Z,7.81
2019-03-02T10:27:43.345Z,7.64
2019-03-02T10:30:14.608Z,7.76
2019-03-02T10:32:42.760Z,7.95
2019-03-02T10:35:13.663Z,8.26
2019-03-02T10:37:43.502Z,8.03
2019-03-02T10:40:13.709Z,8.19
2019-03-02T10:42:42.848Z,8.09
2019-03-02T10:45:15.356Z,8.31
2019-03-02T10:47:44.287Z,8.48
2019-03-02T10:50:19.540Z,8.54
2019-03-02T10:52:49.035Z,8.43
2019-03-02T10:55:19.095Z,8.60
2019-03-02T10:57:47.596Z,8.26
2019-03-02T11:00:29.285Z,8.17
2019-03-02T11:02:57.326Z,8.29
2019-03-02T11:05:45.468Z,8.24
2019-03-02T11:08:28.843Z,8.43
2019-03-02T11:11:19.811Z,8.50
2019-03-02T11:14:06.588Z,8.62
2019-03-02T11:16:49.124Z,8.47
2019-03-02T11:19:39.994Z,8.65
2019-03-02T11:22:26.913Z,8.86
2019-03-02T11:25:23.734Z,9.01
2019-03-02T11:28:14.705Z,9.01
2019-03-02T11:31:01.397Z,9.02
2019-03-02T11:33:54.934Z,8.96
2019-03-02T11:36:45.856Z,9.02
2019-03-02T11:39:28.126Z,9.12
2019-03-02T11:42:19.233Z,9.26
2019-03-02T11:45:05.803Z,9.49
2019-03-02T11:48:02.975Z,9.32
2019-03-02T11:50:50.875Z,9.25
2019-03-02T11:53:24.178Z,9.31
2019-03-02T11:56:25.056Z,9.09
2019-03-02T11:59:11.775Z,9.19
2019-03-02T12:01:51.676Z,9.10
2019-03-02T12:04:38.204Z,8.90
2019-03-02T12:07:31.913Z,9.12
2019-03-02T12:10:06.416Z,9.25
2019-03-02T12:12:43.890Z,9.38
2019-03-02T12:15:19.665Z,9.19
2019-03-02T12:17:55.434Z,9.46
2019-03-02T12:20:55.388Z,9.38
2019-03-02T12:23:54.759Z,9.59
2019-03-02T12:26:42.908Z,9.48
2019-03-02T12:29:50.793Z,9.63
2019-03-02T12:32:40.285Z,9.58
2019-03-02T12:35:26.835Z,9.68
2019-03-02T12:38:07.313Z,9.49
2019-03-02T12:41:15.697Z,9.69
2019-03-02T12:44:02.831Z,9.65
2019-03-02T12:46:51.767Z,9.76
2019-03-02T12:49:44.030Z,9.64
2019-03-02T12:52:25.063Z,9.49
2019-03-02T12:55:08.576Z,9.46
2019-03-02T12:57:59.005Z,9.40
2019-03-02T13:00:36.714Z,9.48
2019-03-02T13:03:22.355Z,9.20
2019-03-02T13:06:15.834Z,9.46
2019-03-02T13:09:12.650Z,9.41
2019-03-02T13:11:54.108Z,9.57
2019-03-02T13:14:54.285Z,9.32
2019-03-02T13:17:44.773Z,9.34
2019-03-02T13:20:31.235Z,9.38
2019-03-02T13:23:06.573Z,9.15
2019-03-02T13:26:13.556Z,8.82
2019-03-02T13:28:49.109Z,8.98
2019-03-02T13:31:40.022Z,8.90
2019-03-02T13:34:43.836Z,8.95
2019-03-02T13:37:47.253Z,9.01
2019-03-02T13:40:36.391Z,8.96
2019-03-02T13:43:24.591Z,9.06
2019-03-02T13:46:03.685Z,8.74
2019-03-02T13:48:53.036Z,8.79
2019-03-02T13:51:46.895Z,8.77
2019-03-02T13:54:38.428Z,8.70
2019-03-02T13:57:29.225Z,8.73
2019-03-02T14:00:23.251Z,8.65
2019-03-02T14:03:13.869Z,8.70
2019-03-02T14:05:55.047Z,8.61
2019-03-02T14:08:33.216Z,8.65
2019-03-02T14:11:20.007Z,8.41
2019-03-02T14:14:08.324Z,8.55
2019-03-02T14:16:58.866Z,8.61
2019-03-02T14:19:37.978Z,8.50
2019-03-02T14:22:31.743Z,8.66
2019-03-02T14:25:34.258Z,8.73
2019-03-02T14:28:14.067Z,8.64
2019-03-02T14:30:57.085Z,8.54
2019-03-02T14:33:39.291Z,8.52
2019-03-02T14:36:30.646Z,8.67
2019-03-02T14:39:15.987Z,8.63
2019-03-02T14:42:12.566Z,8.49
2019-03-02T14:44:53.172Z,8.26
2019-03-02T14:47:41.505Z,8.37
2019-03-02T14:50:28.361Z,8.43
2019-03-02T14:53:09.458Z,8.38
2019-03-02T14:55:51.671Z,8.22
2019-03-02T14:58:38.888Z,8.24
2019-03-02T15:01:29.173Z,8.29
2019-03-02T15:04:29.100Z,8.25
2019-03-02T15:07:11.467Z,8.25
2019-03-02T15:10:05.102Z,8.23
2019-03-02T15:12:58.856Z,8.23
2019-03-02T15:15:41.746Z,8.15
2019-03-02T15:18:29.050Z,8.13
2019-03-02T15:21:18.146Z,8.31
2019-03-02T15:24:21.089Z,8.31
2019-03-02T15:27:12.813Z,8.15
2019-03-02T15:30:06.581Z,7.91
2019-03-02T15:33:00.298Z,8.39
2019-03-02T15:35:39.385Z,8.41
2019-03-02T15:38:22.080Z,8.59
2019-03-02T15:41:00.632Z,8.54
2019-03-02T15:43:39.453Z,8.70
2019-03-02T15:46:26.445Z,8.78
2019-03-02T15:49:16.270Z,8.60
2019-03-02T15:51:52.089Z,8.12
2019-03-02T15:54:42.551Z,8.34
2019-03-02T15:57:17.585Z,8.35
2019-03-02T16:00:09.931Z,7.93
2019-03-02T16:02:54.096Z,8.46
2019-03-02T16:05:37.545Z,8.46
2019-03-02T16:08:18.221Z,8.32
2019-03-02T16:11:07.027Z,8.33
2019-03-02T16:14:01.058Z,8.26
2019-03-02T16:16:59.909Z,8.30
2019-03-02T16:19:35.965Z,8.32
2019-03-02T16:22:16.477Z,8.03
2019-03-02T16:25:05.030Z,8.33
2019-03-02T16:27:58.732Z,8.27
2019-03-02T16:30:34.227Z,8.27
2019-03-02T16:33:22.424Z,8.26
2019-03-02T16:36:12.150Z,8.24
2019-03-02T16:39:12.393Z,8.05
2019-03-02T16:42:13.986Z,7.85
2019-03-02T16:45:14.741Z,7.79
2019-03-02T16:48:05.246Z,7.68
2019-03-02T16:51:02.439Z,7.74
2019-03-02T16:53:45.555Z,7.77
2019-03-02T16:56:39.293Z,7.86
2019-03-02T16:59:18.741Z,7.86
2019-03-02T17:02:03.982Z,7.78
2019-03-02T17:04:46.863Z,7.70
2019-03-02T17:07:40.404Z,7.80
2019-03-02T17:10:28.937Z,7.83
2019-03-02T17:13:18.159Z,7.77
2019-03-02T17:16:05.038Z,7.84
2019-03-02T17:18:53.670Z,7.84
2019-03-02T17:21:33.792Z,7.76
2019-03-02T17:24:11.945Z,7.84
2019-03-02T17:26:55.423Z,7.81
2019-03-02T17:29:49.597Z,7.89
2019-03-02T17:32:42.172Z,7.80
2019-03-02T17:35:31.044Z,7.83
2019-03-02T17:38:13.230Z,7.76
2019-03-02T17:41:18.736Z,7.78
2019-03-02T17:43:56.883Z,7.72
2019-03-02T17:46:50.870Z,7.76
2019-03-02T17:49:44.520Z,7.67
2019-03-02T17:52:46.776Z,7.72
2019-03-02T17:55:50.998Z,7.70
2019-03-02T17:58:41.744Z,7.59
2019-03-02T18:01:35.748Z,7.51
2019-03-02T18:04:22.253Z,7.28
2019-03-02T18:06:59.240Z,7.35
2019-03-02T18:09:42.532Z,7.15
2019-03-02T18:12:17.490Z,7.13
2019-03-02T18:15:01.954Z,7.07
2019-03-02T18:17:56.931Z,7.03
2019-03-02T18:20:25.304Z,7.02
2019-03-02T18:22:53.397Z,7.15
2019-03-02T18:25:21.768Z,6.97
2019-03-02T18:27:50.659Z,7.05
2019-03-02T18:30:18.980Z,7.14
2019-03-02T18:32:48.620Z,7.20
2019-03-02T18:35:16.769Z,7.06
2019-03-02T18:37:44.830Z,6.84
2019-03-02T18:40:13.167Z,7.00
2019-03-02T18:42:41.292Z,7.00
2019-03-02T18:45:10.945Z,7.00
2019-03-02T18:47:39.144Z,6.98
2019-03-02T18:50:19.651Z,6.99
2019-03-02T18:52:56.999Z,6.99
2019-03-02T18:55:25.750Z,7.01
2019-03-02T18:57:55.606Z,7.08
2019-03-02T19:00:27.081Z,6.98
2019-03-02T19:02:55.858Z,6.86
2019-03-02T19:05:30.473Z,6.86
2019-03-02T19:08:00.522Z,6.97
2019-03-02T19:10:29.177Z,6.92
2019-03-02T19:12:57.470Z,6.87
2019-03-02T19:15:25.886Z,6.69
2019-03-02T19:17:54.027Z,6.67
2019-03-02T19:20:22.629Z,6.71
2019-03-02T19:22:51.394Z,6.89
2019-03-02T19:25:20.156Z,6.89
2019-03-02T19:27:48.213Z,6.96
2019-03-02T19:30:18.522Z,6.95
2019-03-02T19:32:46.807Z,6.97
2019-03-02T19:35:14.974Z,7.01
2019-03-02T19:37:43.529Z,7.03
2019-03-02T19:40:16.145Z,6.99
2019-03-02T19:42:44.223Z,7.13
2019-03-02T19:45:12.664Z,7.11
2019-03-02T19:47:40.780Z,7.21
2019-03-02T19:50:13.050Z,7.14
2019-03-02T19:52:41.310Z,7.18
2019-03-02T19:55:10.113Z,7.34
2019-03-02T19:57:38.804Z,7.35
2019-03-02T20:00:15.127Z,7.33
2019-03-02T20:02:43.374Z,7.35
2019-03-02T20:05:11.925Z,7.42
2019-03-02T20:07:40.013Z,7.36
2019-03-02T20:10:09.192Z,7.38
2019-03-02T20:12:37.264Z,7.51
2019-03-02T20:15:10.050Z,7.49
2019-03-02T20:17:38.124Z,7.62
2019-03-02T20:20:09.356Z,7.68
2019-03-02T20:22:37.430Z,7.68
2019-03-02T20:25:07.506Z,7.71
2019-03-02T20:27:35.699Z,7.72
2019-03-02T20:30:06.460Z,7.71
2019-03-02T20:32:34.614Z,7.65
2019-03-02T20:35:02.719Z,7.70
2019-03-02T20:37:30.847Z,7.72
2019-03-02T20:39:59.282Z,7.76
2019-03-02T20:42:27.671Z,7.81
2019-03-02T20:44:56.069Z,7.90
2019-03-02T20:47:24.176Z,7.87
2019-03-02T20:49:53.644Z,7.81
2019-03-02T20:52:21.834Z,7.87
2019-03-02T20:54:49.935Z,7.89
2019-03-02T20:57:18.579Z,7.95
2019-03-02T20:59:46.728Z,8.03
2019-03-02T21:02:14.821Z,8.05
2019-03-02T21:04:43.069Z,7.93
2019-03-02T21:07:11.219Z,8.10
2019-03-02T21:09:40.816Z,8.05
2019-03-02T21:12:09.011Z,8.01
2019-03-02T21:14:37.430Z,8.11
2019-03-02T21:17:05.577Z,8.17
2019-03-02T21:19:33.666Z,8.06
2019-03-02T21:22:01.863Z,8.21
2019-03-02T21:24:29.952Z,8.11
2019-03-02T21:26:58.144Z,8.10
2019-03-02T21:29:26.413Z,8.02
2019-03-02T21:31:54.737Z,7.99
2019-03-02T21:34:22.811Z,7.94
2019-03-02T21:36:51.429Z,7.98
2019-03-02T21:39:21.042Z,8.02
2019-03-02T21:41:49.401Z,8.18
2019-03-02T21:44:17.524Z,8.18
2019-03-02T21:46:45.642Z,8.20
2019-03-02T21:49:13.730Z,8.12
2019-03-02T21:51:42.177Z,8.21
2019-03-02T21:54:10.374Z,8.11
2019-03-02T21:56:38.441Z,8.09
2019-03-02T21:59:06.563Z,8.19
2019-03-02T22:01:34.636Z,8.21
2019-03-02T22:04:02.756Z,8.22
2019-03-02T22:06:30.866Z,8.23
2019-03-02T22:08:59.837Z,8.21
2019-03-02T22:11:27.904Z,8.20
2019-03-02T22:13:55.985Z,8.30
2019-03-02T22:16:24.189Z,8.24
2019-03-02T22:18:52.344Z,8.28
2019-03-02T22:21:20.517Z,8.25
2019-03-02T22:23:50.397Z,8.25
2019-03-02T22:26:18.470Z,8.35
2019-03-02T22:28:46.679Z,8.33
2019-03-02T22:31:14.924Z,8.30
2019-03-02T22:33:43.147Z,8.39
2019-03-02T22:36:11.347Z,8.39
2019-03-02T22:38:39.446Z,8.40
2019-03-02T22:41:07.560Z,8.41
2019-03-02T22:43:35.739Z,8.39
2019-03-02T22:46:03.989Z,8.40
2019-03-02T22:48:32.101Z,8.41
2019-03-02T22:51:00.211Z,8.46
2019-03-02T22:53:28.988Z,8.45
2019-03-02T22:55:57.192Z,8.48
2019-03-02T22:58:30.922Z,8.42
2019-03-02T23:01:57.407Z,8.47
2019-03-02T23:04:27.258Z,8.43
2019-03-02T23:06:55.378Z,8.44
2019-03-02T23:09:25.093Z,8.54
2019-03-02T23:11:53.206Z,8.55
2019-03-02T23:14:23.112Z,8.57
2019-03-02T23:16:51.236Z,8.59
2019-03-02T23:19:19.441Z,8.59
2019-03-02T23:21:48.380Z,8.59
2019-03-02T23:24:35.097Z,8.63
2019-03-02T23:27:04.467Z,8.69
2019-03-02T23:29:32.654Z,8.66
2019-03-02T23:32:02.264Z,8.71
2019-03-02T23:34:36.998Z,8.78
2019-03-02T23:37:01.701Z,8.82
2019-03-02T23:39:29.799Z,8.80
2019-03-02T23:41:58.620Z,8.84
2019-03-02T23:44:28.519Z,8.87
2019-03-02T23:46:56.611Z,8.84
2019-03-02T23:49:25.665Z,8.95
2019-03-02T23:51:55.161Z,8.95
2019-03-02T23:54:25.969Z,9.04
2019-03-02T23:57:13.029Z,9.05
2019-03-02T23:59:41.822Z,9.06
